createdAt,value
2019-02-05T00:02:26.085Z,-4.09
2019-02-05T00:06:28.959Z,-4.01
2019-02-05T00:10:32.201Z,-3.95
2019-02-05T00:14:35.034Z,-3.92
2019-02-05T00:18:37.794Z,-3.90
2019-02-05T00:22:42.569Z,-3.83
2019-02-05T00:26:45.616Z,-3.77
2019-02-05T00:30:49.517Z,-3.73
2019-02-05T00:34:52.260Z,-3.69
2019-02-05T00:38:55.223Z,-3.65
2019-02-05T00:42:57.934Z,-3.65
2019-02-05T00:47:00.756Z,-3.60
2019-02-05T00:51:03.785Z,-3.58
2019-02-05T00:55:07.259Z,-3.55
2019-02-05T00:59:10.146Z,-3.50
2019-02-05T01:03:12.960Z,-3.50
2019-02-05T01:07:15.928Z,-3.44
2019-02-05T01:11:18.782Z,-3.33
2019-02-05T01:15:23.369Z,-3.25
2019-02-05T01:19:26.223Z,-3.16
2019-02-05T01:23:29.119Z,-3.08
2019-02-05T01:27:33.715Z,-3.02
2019-02-05T01:31:36.475Z,-2.92
2019-02-05T01:35:39.312Z,-2.88
2019-02-05T01:39:42.498Z,-2.84
2019-02-05T01:43:45.448Z,-2.71
2019-02-05T01:47:56.612Z,-2.69
2019-02-05T01:51:59.503Z,-2.63
2019-02-05T01:56:02.467Z,-2.59
2019-02-05T02:00:06.528Z,-2.53
2019-02-05T02:04:10.276Z,-2.47
2019-02-05T02:08:13.527Z,-2.46
2019-02-05T02:12:16.266Z,-2.43
2019-02-05T02:16:19.012Z,-2.38
2019-02-05T02:20:22.406Z,-2.26
2019-02-05T02:24:25.212Z,-2.10
2019-02-05T02:28:28.193Z,-2.02
2019-02-05T02:32:32.432Z,-1.90
2019-02-05T02:36:35.355Z,-1.73
2019-02-05T02:40:38.333Z,-1.73
2019-02-05T02:44:41.068Z,-1.61
2019-02-05T02:48:43.823Z,-1.57
2019-02-05T02:52:46.672Z,-1.53
2019-02-05T02:56:49.404Z,-1.44
2019-02-05T03:00:52.268Z,-1.36
2019-02-05T03:04:55.014Z,-1.21
2019-02-05T03:08:57.975Z,-1.11
2019-02-05T03:13:01.007Z,-1.05
2019-02-05T03:17:03.956Z,-1.01
2019-02-05T03:21:06.988Z,-0.91
2019-02-05T03:25:10.917Z,-0.87
2019-02-05T03:29:13.666Z,-0.86
2019-02-05T03:33:18.060Z,-0.80
2019-02-05T03:37:20.787Z,-0.77
2019-02-05T03:41:23.685Z,-0.79
2019-02-05T03:45:27.819Z,-0.80
2019-02-05T03:49:30.692Z,-0.72
2019-02-05T03:53:35.824Z,-0.69
2019-02-05T03:58:31.153Z,-0.67
2019-02-05T04:02:56.889Z,-0.64
2019-02-05T04:07:48.113Z,-0.63
2019-02-05T04:12:31.460Z,-0.55
2019-02-05T04:17:22.732Z,-0.53
2019-02-05T04:21:53.308Z,-0.52
2019-02-05T04:26:29.886Z,-0.43
2019-02-05T04:30:55.744Z,-0.40
2019-02-05T04:35:33.727Z,-0.34
2019-02-05T04:40:30.537Z,-0.24
2019-02-05T04:45:13.883Z,-0.19
2019-02-05T04:49:47.702Z,-0.14
2019-02-05T04:54:15.417Z,-0.05
2019-02-05T04:58:37.418Z,-0.01
2019-02-05T05:03:19.228Z,0.05
2019-02-05T05:07:46.728Z,0.02
2019-02-05T05:11:49.189Z,0.05
2019-02-05T05:15:51.707Z,0.03
2019-02-05T05:19:54.564Z,0.06
2019-02-05T05:23:58.624Z,0.08
2019-02-05T05:28:10.222Z,0.08
2019-02-05T05:32:07.833Z,0.11
2019-02-05T05:36:10.638Z,0.13
2019-02-05T05:40:13.663Z,0.15
2019-02-05T05:44:16.650Z,0.14
2019-02-05T05:48:19.387Z,0.17
2019-02-05T05:52:22.268Z,0.21
2019-02-05T05:56:25.192Z,0.23
2019-02-05T06:00:28.128Z,0.23
2019-02-05T06:04:30.963Z,0.23
2019-02-05T06:08:33.963Z,0.26
2019-02-05T06:12:36.767Z,0.29
2019-02-05T06:16:39.637Z,0.30
2019-02-05T06:20:42.412Z,0.30
2019-02-05T06:24:45.153Z,0.30
2019-02-05T06:28:48.144Z,0.30
2019-02-05T06:32:51.121Z,0.31
2019-02-05T06:36:54.164Z,0.33
2019-02-05T06:40:57.180Z,0.33
2019-02-05T06:45:00.325Z,0.36
2019-02-05T06:49:03.192Z,0.33
2019-02-05T06:53:06.275Z,0.33
2019-02-05T06:57:09.384Z,0.30
2019-02-05T07:01:12.235Z,0.32
2019-02-05T07:05:15.735Z,0.33
2019-02-05T07:09:18.531Z,0.36
2019-02-05T07:13:21.315Z,0.33
2019-02-05T07:17:24.197Z,0.31
2019-02-05T07:21:27.038Z,0.34
2019-02-05T07:25:29.854Z,0.34
2019-02-05T07:29:32.776Z,0.37
2019-02-05T07:33:35.550Z,0.36
2019-02-05T07:37:38.262Z,0.37
2019-02-05T07:41:41.251Z,0.37
2019-02-05T07:45:44.039Z,0.36
2019-02-05T07:49:48.567Z,0.37
2019-02-05T07:53:51.624Z,0.37
2019-02-05T07:57:54.444Z,0.38
2019-02-05T08:01:57.193Z,0.41
2019-02-05T08:06:00.007Z,0.42
2019-02-05T08:10:02.836Z,0.43
2019-02-05T08:14:06.271Z,0.45
2019-02-05T08:18:09.249Z,0.45
2019-02-05T08:22:12.012Z,0.45
2019-02-05T08:26:15.018Z,0.48
2019-02-05T08:30:23.676Z,0.49
2019-02-05T08:34:26.563Z,0.51
2019-02-05T08:38:29.270Z,0.52
2019-02-05T08:42:32.263Z,0.52
2019-02-05T08:46:35.019Z,0.52
2019-02-05T08:50:38.770Z,0.52
2019-02-05T08:54:41.460Z,0.51
2019-02-05T08:58:44.430Z,0.51
2019-02-05T09:02:47.272Z,0.51
2019-02-05T09:06:50.048Z,0.53
2019-02-05T09:10:52.931Z,0.50
2019-02-05T09:14:55.881Z,0.51
2019-02-05T09:18:59.567Z,0.52
2019-02-05T09:23:02.507Z,0.53
2019-02-05T09:27:05.304Z,0.57
2019-02-05T09:31:08.151Z,0.53
2019-02-05T09:35:11.212Z,0.54
2019-02-05T09:39:14.155Z,0.55
2019-02-05T09:43:20.077Z,0.55
2019-02-05T09:47:22.905Z,0.56
2019-02-05T09:51:25.869Z,0.59
2019-02-05T09:55:28.712Z,0.60
2019-02-05T09:59:31.594Z,0.57
2019-02-05T10:03:34.419Z,0.56
2019-02-05T10:07:36.976Z,0.54
2019-02-05T10:11:39.864Z,0.58
2019-02-05T10:15:43.655Z,0.58
2019-02-05T10:19:46.425Z,0.60
2019-02-05T10:23:49.139Z,0.62
2019-02-05T10:27:51.835Z,0.60
2019-02-05T10:31:54.608Z,0.66
2019-02-05T10:35:57.204Z,0.70
2019-02-05T10:40:00.855Z,0.70
2019-02-05T10:44:03.795Z,0.62
2019-02-05T10:48:08.621Z,0.55
2019-02-05T10:52:11.354Z,0.55
2019-02-05T10:56:14.280Z,0.51
2019-02-05T11:00:27.346Z,0.46
2019-02-05T11:04:29.936Z,0.43
2019-02-05T11:08:32.616Z,0.41
2019-02-05T11:12:35.105Z,0.41
2019-02-05T11:16:37.524Z,0.40
2019-02-05T11:20:40.540Z,0.37
2019-02-05T11:24:43.105Z,0.36
2019-02-05T11:28:45.520Z,0.33
2019-02-05T11:32:48.172Z,0.33
2019-02-05T11:36:50.765Z,0.33
2019-02-05T11:40:53.507Z,0.27
2019-02-05T11:44:56.062Z,0.24
2019-02-05T11:48:58.682Z,0.24
2019-02-05T11:53:01.536Z,0.18
2019-02-05T11:57:04.527Z,0.19
2019-02-05T12:01:11.839Z,0.17
2019-02-05T12:05:15.664Z,0.15
2019-02-05T12:09:21.568Z,0.14
2019-02-05T12:13:24.478Z,0.13
2019-02-05T12:17:27.201Z,0.13
2019-02-05T12:21:30.406Z,0.12
2019-02-05T12:25:33.301Z,0.14
2019-02-05T12:29:36.404Z,0.16
2019-02-05T12:33:39.044Z,0.11
2019-02-05T12:37:42.038Z,0.08
2019-02-05T12:41:44.678Z,0.08
2019-02-05T12:45:47.656Z,0.06
2019-02-05T12:49:50.476Z,0.05
2019-02-05T12:53:53.195Z,0.05
2019-02-05T12:57:56.395Z,0.04
2019-02-05T13:01:59.240Z,0.04
2019-02-05T13:06:02.141Z,0.02
2019-02-05T13:10:05.232Z,0.03
2019-02-05T13:14:09.513Z,0.04
2019-02-05T13:18:12.339Z,0.01
2019-02-05T13:22:15.237Z,0.01
2019-02-05T13:26:17.843Z,-0.02
2019-02-05T13:30:23.551Z,-0.04
2019-02-05T13:34:26.160Z,-0.04
2019-02-05T13:38:28.792Z,-0.07
2019-02-05T13:42:31.567Z,-0.09
2019-02-05T13:46:34.387Z,-0.10
2019-02-05T13:50:37.073Z,-0.11
2019-02-05T13:54:39.636Z,-0.13
2019-02-05T13:58:43.492Z,-0.14
2019-02-05T14:02:46.045Z,-0.14
2019-02-05T14:06:50.565Z,-0.14
2019-02-05T14:10:54.975Z,-0.13
2019-02-05T14:14:57.512Z,-0.16
2019-02-05T14:18:59.968Z,-0.18
2019-02-05T14:23:02.555Z,-0.22
2019-02-05T14:27:05.289Z,-0.21
2019-02-05T14:31:08.367Z,-0.24
2019-02-05T14:35:11.362Z,-0.26
2019-02-05T14:39:14.305Z,-0.27
2019-02-05T14:43:16.869Z,-0.30
2019-02-05T14:47:19.688Z,-0.33
2019-02-05T14:51:22.119Z,-0.38
2019-02-05T14:55:24.745Z,-0.41
2019-02-05T14:59:27.294Z,-0.42
2019-02-05T15:03:29.881Z,-0.42
2019-02-05T15:07:33.031Z,-0.46
2019-02-05T15:11:35.705Z,-0.48
2019-02-05T15:15:38.352Z,-0.50
2019-02-05T15:19:41.105Z,-0.52
2019-02-05T15:23:43.738Z,-0.53
2019-02-05T15:27:47.504Z,-0.56
2019-02-05T15:31:54.679Z,-0.57
2019-02-05T15:36:00.393Z,-0.59
2019-02-05T15:40:03.268Z,-0.59
2019-02-05T15:44:06.296Z,-0.60
2019-02-05T15:48:08.919Z,-0.61
2019-02-05T15:52:11.982Z,-0.64
2019-02-05T15:56:14.954Z,-0.69
2019-02-05T16:00:18.627Z,-0.70
2019-02-05T16:04:21.187Z,-0.71
2019-02-05T16:08:23.647Z,-0.73
2019-02-05T16:12:28.072Z,-0.76
2019-02-05T16:16:31.709Z,-0.76
2019-02-05T16:20:34.148Z,-0.78
2019-02-05T16:24:36.673Z,-0.79
2019-02-05T16:28:39.233Z,-0.79
2019-02-05T16:32:41.887Z,-0.78
2019-02-05T16:36:44.332Z,-0.77
2019-02-05T16:40:47.348Z,-0.75
2019-02-05T16:44:56.038Z,-0.76
2019-02-05T16:48:58.529Z,-0.78
2019-02-05T16:53:01.344Z,-0.78
2019-02-05T16:57:04.229Z,-0.78
2019-02-05T17:01:07.102Z,-0.79
2019-02-05T17:05:10.954Z,-0.78
2019-02-05T17:09:17.641Z,-0.79
2019-02-05T17:13:20.625Z,-0.80
2019-02-05T17:17:23.280Z,-0.80
2019-02-05T17:21:26.919Z,-0.79
2019-02-05T17:25:29.677Z,-0.80
2019-02-05T17:29:32.408Z,-0.80
2019-02-05T17:33:35.059Z,-0.79
2019-02-05T17:37:39.498Z,-0.77
2019-02-05T17:41:41.844Z,-0.77
2019-02-05T17:45:45.243Z,-0.77
2019-02-05T17:49:47.653Z,-0.76
2019-02-05T17:53:52.222Z,-0.77
2019-02-05T17:57:55.097Z,-0.77
2019-02-05T18:01:58.515Z,-0.76
2019-02-05T18:06:01.375Z,-0.78
2019-02-05T18:10:03.819Z,-0.79
2019-02-05T18:14:06.852Z,-0.81
2019-02-05T18:18:09.474Z,-0.81
2019-02-05T18:22:12.227Z,-0.81
2019-02-05T18:26:14.658Z,-0.80
2019-02-05T18:30:29.003Z,-0.80
2019-02-05T18:34:31.412Z,-0.80
2019-02-05T18:38:34.143Z,-0.78
2019-02-05T18:42:37.015Z,-0.80
2019-02-05T18:46:39.647Z,-0.78
2019-02-05T18:50:42.209Z,-0.79
2019-02-05T18:54:44.561Z,-0.79
2019-02-05T18:58:46.983Z,-0.79
2019-02-05T19:02:49.509Z,-0.79
2019-02-05T19:06:52.065Z,-0.76
2019-02-05T19:10:54.523Z,-0.77
2019-02-05T19:14:58.204Z,-0.77
2019-02-05T19:19:01.092Z,-0.77
2019-02-05T19:23:04.643Z,-0.76
2019-02-05T19:27:07.351Z,-0.73
2019-02-05T19:31:28.745Z,-0.71
2019-02-05T19:35:31.304Z,-0.71
2019-02-05T19:39:34.076Z,-0.70
2019-02-05T19:43:36.405Z,-0.69
2019-02-05T19:47:39.305Z,-0.67
2019-02-05T19:51:42.335Z,-0.64
2019-02-05T19:55:45.208Z,-0.60
2019-02-05T19:59:49.974Z,-0.59
2019-02-05T20:03:53.509Z,-0.55
2019-02-05T20:07:57.292Z,-0.51
2019-02-05T20:11:59.750Z,-0.49
2019-02-05T20:16:02.528Z,-0.48
2019-02-05T20:20:05.321Z,-0.46
2019-02-05T20:24:07.783Z,-0.46
2019-02-05T20:28:10.668Z,-0.47
2019-02-05T20:32:13.143Z,-0.47
2019-02-05T20:36:15.678Z,-0.46
2019-02-05T20:40:19.164Z,-0.48
2019-02-05T20:44:21.680Z,-0.49
2019-02-05T20:48:24.035Z,-0.48
2019-02-05T20:52:26.435Z,-0.48
2019-02-05T20:56:30.962Z,-0.48
2019-02-05T21:00:33.194Z,-0.49
2019-02-05T21:04:35.693Z,-0.50
2019-02-05T21:08:39.785Z,-0.50
2019-02-05T21:12:42.154Z,-0.51
2019-02-05T21:16:44.868Z,-0.52
2019-02-05T21:20:47.234Z,-0.55
2019-02-05T21:24:50.905Z,-0.56
2019-02-05T21:28:53.273Z,-0.57
2019-02-05T21:32:56.085Z,-0.58
2019-02-05T21:36:58.716Z,-0.58
2019-02-05T21:41:01.198Z,-0.60
2019-02-05T21:45:03.839Z,-0.60
2019-02-05T21:49:07.195Z,-0.63
2019-02-05T21:53:09.575Z,-0.63
2019-02-05T21:57:12.022Z,-0.64
2019-02-05T22:01:14.688Z,-0.64
2019-02-05T22:05:17.643Z,-0.64
2019-02-05T22:09:20.113Z,-0.67
2019-02-05T22:13:22.700Z,-0.66
2019-02-05T22:17:26.907Z,-0.68
2019-02-05T22:21:29.443Z,-0.67
2019-02-05T22:25:32.515Z,-0.69
2019-02-05T22:29:35.342Z,-0.69
2019-02-05T22:33:37.695Z,-0.70
2019-02-05T22:37:40.767Z,-0.71
2019-02-05T22:41:43.117Z,-0.72
2019-02-05T22:45:45.520Z,-0.73
2019-02-05T22:49:47.994Z,-0.74
2019-02-05T22:53:50.697Z,-0.76
2019-02-05T22:57:53.399Z,-0.75
2019-02-05T23:01:59.103Z,-0.76
2019-02-05T23:06:11.273Z,-0.76
2019-02-05T23:10:51.622Z,-0.77
2019-02-05T23:14:59.019Z,-0.80
2019-02-05T23:19:01.981Z,-0.82
2019-02-05T23:23:04.644Z,-0.84
2019-02-05T23:27:07.172Z,-0.85
2019-02-05T23:31:09.723Z,-0.86
2019-02-05T23:35:12.332Z,-0.87
2019-02-05T23:39:15.002Z,-0.89
2019-02-05T23:43:17.417Z,-0.91
2019-02-05T23:47:20.248Z,-0.92
2019-02-05T23:51:22.662Z,-0.94
2019-02-05T23:55:25.516Z,-0.94
2019-02-05T23:59:27.959Z,-0.95
